sensor_id;sensor_type;location;lat;lon;timestamp;temperature;humidity
19952;DHT22;10137;49.406;19.484;2022-09-03T00:00:14;8.70;99.90
19952;DHT22;10137;49.406;19.484;2022-09-03T00:02:43;8.80;99.90
19952;DHT22;10137;49.406;19.484;2022-09-03T00:05:16;8.80;99.90
19952;DHT22;10137;49.406;19.484;2022-09-03T00:07:51;8.70;99.90
19952;DHT22;10137;49.406;19.484;2022-09-03T00:10:26;8.70;99.90
19952;DHT22;10137;49.406;19.484;2022-09-03T00:12:56;8.60;99.90
19952;DHT22;10137;49.406;19.484;2022-09-03T00:15:27;8.70;99.90
19952;DHT22;10137;49.406;19.484;2022-09-03T00:17:59;8.50;99.90
19952;DHT22;10137;49.406;19.484;2022-09-03T00:20:30;8.50;99.90
19952;DHT22;10137;49.406;19.484;2022-09-03T00:23:02;8.50;99.90
19952;DHT22;10137;49.406;19.484;2022-09-03T00:25:35;8.60;99.90
19952;DHT22;10137;49.406;19.484;2022-09-03T00:28:07;8.30;99.90
19952;DHT22;10137;49.406;19.484;2022-09-03T00:30:40;8.30;99.90
19952;DHT22;10137;49.406;19.484;2022-09-03T00:33:12;8.30;99.90
19952;DHT22;10137;49.406;19.484;2022-09-03T00:35:46;8.30;99.90
19952;DHT22;10137;49.406;19.484;2022-09-03T00:38:15;8.20;99.90
19952;DHT22;10137;49.406;19.484;2022-09-03T00:40:55;8.00;99.90
19952;DHT22;10137;49.406;19.484;2022-09-03T00:43:34;7.90;99.90
19952;DHT22;10137;49.406;19.484;2022-09-03T00:46:14;7.90;99.90
19952;DHT22;10137;49.406;19.484;2022-09-03T00:48:56;8.10;99.90
19952;DHT22;10137;49.406;19.484;2022-09-03T00:51:32;8.10;99.90
19952;DHT22;10137;49.406;19.484;2022-09-03T00:54:07;8.00;99.90
19952;DHT22;10137;49.406;19.484;2022-09-03T00:56:43;8.00;99.90
19952;DHT22;10137;49.406;19.484;2022-09-03T00:59:20;8.10;99.90
19952;DHT22;10137;49.406;19.484;2022-09-03T01:02:02;8.10;99.90
19952;DHT22;10137;49.406;19.484;2022-09-03T01:04:42;8.10;99.90
19952;DHT22;10137;49.406;19.484;2022-09-03T01:07:21;8.10;99.90
19952;DHT22;10137;49.406;19.484;2022-09-03T01:09:57;8.00;99.90
19952;DHT22;10137;49.406;19.484;2022-09-03T01:12:33;7.90;99.90
19952;DHT22;10137;49.406;19.484;2022-09-03T01:15:09;7.90;99.90
19952;DHT22;10137;49.406;19.484;2022-09-03T01:17:45;7.90;99.90
19952;DHT22;10137;49.406;19.484;2022-09-03T01:20:31;8.00;99.90
19952;DHT22;10137;49.406;19.484;2022-09-03T01:25:53;7.90;99.90
19952;DHT22;10137;49.406;19.484;2022-09-03T01:28:38;7.90;99.90
19952;DHT22;10137;49.406;19.484;2022-09-03T01:31:16;8.00;99.90
19952;DHT22;10137;49.406;19.484;2022-09-03T01:33:51;8.00;99.90
19952;DHT22;10137;49.406;19.484;2022-09-03T01:36:28;8.00;99.90
19952;DHT22;10137;49.406;19.484;2022-09-03T01:39:00;8.00;99.90
19952;DHT22;10137;49.406;19.484;2022-09-03T01:41:38;8.00;99.90
19952;DHT22;10137;49.406;19.484;2022-09-03T01:44:33;7.90;99.90
19952;DHT22;10137;49.406;19.484;2022-09-03T01:47:15;7.90;99.90
19952;DHT22;10137;49.406;19.484;2022-09-03T01:49:51;7.60;99.90
19952;DHT22;10137;49.406;19.484;2022-09-03T01:52:33;7.50;99.90
19952;DHT22;10137;49.406;19.484;2022-09-03T01:55:12;7.50;99.90
19952;DHT22;10137;49.406;19.484;2022-09-03T01:57:52;7.50;99.90
19952;DHT22;10137;49.406;19.484;2022-09-03T02:00:22;7.60;99.90
19952;DHT22;10137;49.406;19.484;2022-09-03T02:02:51;7.60;99.90
19952;DHT22;10137;49.406;19.484;2022-09-03T02:05:20;7.50;99.90
19952;DHT22;10137;49.406;19.484;2022-09-03T02:07:55;7.30;99.90
19952;DHT22;10137;49.406;19.484;2022-09-03T02:10:26;7.20;99.90
19952;DHT22;10137;49.406;19.484;2022-09-03T02:12:57;7.30;99.90
19952;DHT22;10137;49.406;19.484;2022-09-03T02:15:27;7.30;99.90
19952;DHT22;10137;49.406;19.484;2022-09-03T02:17:57;7.30;99.90
19952;DHT22;10137;49.406;19.484;2022-09-03T02:20:27;7.30;99.90
19952;DHT22;10137;49.406;19.484;2022-09-03T02:22:56;7.30;99.90
19952;DHT22;10137;49.406;19.484;2022-09-03T02:25:28;7.40;99.90
19952;DHT22;10137;49.406;19.484;2022-09-03T02:27:55;7.30;99.90
19952;DHT22;10137;49.406;19.484;2022-09-03T02:30:22;7.40;99.90
19952;DHT22;10137;49.406;19.484;2022-09-03T02:32:51;7.40;99.90
19952;DHT22;10137;49.406;19.484;2022-09-03T02:35:18;7.30;99.90
19952;DHT22;10137;49.406;19.484;2022-09-03T02:37:45;7.40;99.90
19952;DHT22;10137;49.406;19.484;2022-09-03T02:40:12;7.20;99.90
19952;DHT22;10137;49.406;19.484;2022-09-03T02:42:39;7.00;99.90
19952;DHT22;10137;49.406;19.484;2022-09-03T02:45:13;7.10;99.90
19952;DHT22;10137;49.406;19.484;2022-09-03T02:47:43;7.10;99.90
19952;DHT22;10137;49.406;19.484;2022-09-03T02:50:13;7.10;99.90
19952;DHT22;10137;49.406;19.484;2022-09-03T02:52:40;7.20;99.90
19952;DHT22;10137;49.406;19.484;2022-09-03T02:55:08;7.00;99.90
19952;DHT22;10137;49.406;19.484;2022-09-03T02:57:35;7.00;99.90
19952;DHT22;10137;49.406;19.484;2022-09-03T03:00:03;7.00;99.90
19952;DHT22;10137;49.406;19.484;2022-09-03T03:02:30;7.10;99.90
19952;DHT22;10137;49.406;19.484;2022-09-03T03:04:57;7.00;99.90
19952;DHT22;10137;49.406;19.484;2022-09-03T03:07:26;7.00;99.90
19952;DHT22;10137;49.406;19.484;2022-09-03T03:09:53;6.90;99.90
19952;DHT22;10137;49.406;19.484;2022-09-03T03:12:20;6.90;99.90
19952;DHT22;10137;49.406;19.484;2022-09-03T03:14:47;6.90;99.90
19952;DHT22;10137;49.406;19.484;2022-09-03T03:17:14;6.90;99.90
19952;DHT22;10137;49.406;19.484;2022-09-03T03:19:40;6.90;99.90
19952;DHT22;10137;49.406;19.484;2022-09-03T03:22:07;6.80;99.90
19952;DHT22;10137;49.406;19.484;2022-09-03T03:24:36;6.90;99.90
19952;DHT22;10137;49.406;19.484;2022-09-03T03:27:03;6.80;99.90
19952;DHT22;10137;49.406;19.484;2022-09-03T03:29:32;6.90;99.90
19952;DHT22;10137;49.406;19.484;2022-09-03T03:32:00;6.90;99.90
19952;DHT22;10137;49.406;19.484;2022-09-03T03:34:27;6.90;99.90
19952;DHT22;10137;49.406;19.484;2022-09-03T03:36:54;6.80;99.90
19952;DHT22;10137;49.406;19.484;2022-09-03T03:39:21;7.00;99.90
19952;DHT22;10137;49.406;19.484;2022-09-03T03:41:49;6.80;99.90
19952;DHT22;10137;49.406;19.484;2022-09-03T03:44:17;6.70;99.90
19952;DHT22;10137;49.406;19.484;2022-09-03T03:46:44;6.80;99.90
19952;DHT22;10137;49.406;19.484;2022-09-03T03:49:12;6.90;99.90
19952;DHT22;10137;49.406;19.484;2022-09-03T03:51:39;6.90;99.90
19952;DHT22;10137;49.406;19.484;2022-09-03T03:54:06;6.80;99.90
19952;DHT22;10137;49.406;19.484;2022-09-03T03:56:33;6.90;99.90
19952;DHT22;10137;49.406;19.484;2022-09-03T03:59:03;6.80;99.90
19952;DHT22;10137;49.406;19.484;2022-09-03T04:01:30;6.90;99.90
19952;DHT22;10137;49.406;19.484;2022-09-03T04:03:58;6.90;99.90
19952;DHT22;10137;49.406;19.484;2022-09-03T04:06:25;6.90;99.90
19952;DHT22;10137;49.406;19.484;2022-09-03T04:08:52;6.90;99.90
19952;DHT22;10137;49.406;19.484;2022-09-03T04:11:21;7.00;99.90
19952;DHT22;10137;49.406;19.484;2022-09-03T04:13:49;7.00;99.90
19952;DHT22;10137;49.406;19.484;2022-09-03T04:16:20;7.00;99.90
19952;DHT22;10137;49.406;19.484;2022-09-03T04:18:47;7.10;99.90
19952;DHT22;10137;49.406;19.484;2022-09-03T04:21:16;7.00;99.90
19952;DHT22;10137;49.406;19.484;2022-09-03T04:23:44;7.00;99.90
19952;DHT22;10137;49.406;19.484;2022-09-03T04:26:14;6.90;99.90
19952;DHT22;10137;49.406;19.484;2022-09-03T04:28:41;6.80;99.90
19952;DHT22;10137;49.406;19.484;2022-09-03T04:31:11;6.70;99.90
19952;DHT22;10137;49.406;19.484;2022-09-03T04:33:40;6.80;99.90
19952;DHT22;10137;49.406;19.484;2022-09-03T04:36:09;6.90;99.90
19952;DHT22;10137;49.406;19.484;2022-09-03T04:38:38;6.90;99.90
19952;DHT22;10137;49.406;19.484;2022-09-03T04:41:06;6.80;99.90
19952;DHT22;10137;49.406;19.484;2022-09-03T04:43:33;6.80;99.90
19952;DHT22;10137;49.406;19.484;2022-09-03T04:46:01;6.80;99.90
19952;DHT22;10137;49.406;19.484;2022-09-03T04:48:29;6.80;99.90
19952;DHT22;10137;49.406;19.484;2022-09-03T04:51:04;6.90;99.90
19952;DHT22;10137;49.406;19.484;2022-09-03T04:53:32;7.10;99.90
19952;DHT22;10137;49.406;19.484;2022-09-03T04:55:59;7.10;99.90
19952;DHT22;10137;49.406;19.484;2022-09-03T04:58:26;7.00;99.90
19952;DHT22;10137;49.406;19.484;2022-09-03T05:00:53;7.20;99.90
19952;DHT22;10137;49.406;19.484;2022-09-03T05:03:21;7.10;99.90
19952;DHT22;10137;49.406;19.484;2022-09-03T05:05:52;7.00;99.90
19952;DHT22;10137;49.406;19.484;2022-09-03T05:08:20;6.90;99.90
19952;DHT22;10137;49.406;19.484;2022-09-03T05:10:47;7.00;99.90
19952;DHT22;10137;49.406;19.484;2022-09-03T05:13:14;7.00;99.90
19952;DHT22;10137;49.406;19.484;2022-09-03T05:15:41;7.00;99.90
19952;DHT22;10137;49.406;19.484;2022-09-03T05:18:08;7.20;99.90
19952;DHT22;10137;49.406;19.484;2022-09-03T05:20:35;7.20;99.90
19952;DHT22;10137;49.406;19.484;2022-09-03T05:23:03;7.40;99.90
19952;DHT22;10137;49.406;19.484;2022-09-03T05:25:31;7.40;99.90
19952;DHT22;10137;49.406;19.484;2022-09-03T05:27:58;7.50;99.90
19952;DHT22;10137;49.406;19.484;2022-09-03T05:30:26;7.70;99.90
19952;DHT22;10137;49.406;19.484;2022-09-03T05:32:53;7.70;99.90
19952;DHT22;10137;49.406;19.484;2022-09-03T05:35:20;7.70;99.90
19952;DHT22;10137;49.406;19.484;2022-09-03T05:37:46;7.70;99.90
19952;DHT22;10137;49.406;19.484;2022-09-03T05:40:13;7.70;99.90
19952;DHT22;10137;49.406;19.484;2022-09-03T05:42:42;7.70;99.90
19952;DHT22;10137;49.406;19.484;2022-09-03T05:45:09;7.70;99.90
19952;DHT22;10137;49.406;19.484;2022-09-03T05:47:37;7.80;99.90
19952;DHT22;10137;49.406;19.484;2022-09-03T05:50:06;7.90;99.90
19952;DHT22;10137;49.406;19.484;2022-09-03T05:52:35;8.00;99.90
19952;DHT22;10137;49.406;19.484;2022-09-03T05:55:03;8.00;99.90
19952;DHT22;10137;49.406;19.484;2022-09-03T05:57:30;8.10;99.90
19952;DHT22;10137;49.406;19.484;2022-09-03T05:59:58;8.20;99.90
19952;DHT22;10137;49.406;19.484;2022-09-03T06:02:26;8.30;99.90
19952;DHT22;10137;49.406;19.484;2022-09-03T06:04:52;8.40;99.90
19952;DHT22;10137;49.406;19.484;2022-09-03T06:07:20;8.40;99.90
19952;DHT22;10137;49.406;19.484;2022-09-03T06:09:47;8.60;99.90
19952;DHT22;10137;49.406;19.484;2022-09-03T06:12:14;8.70;99.90
19952;DHT22;10137;49.406;19.484;2022-09-03T06:14:41;8.90;99.90
19952;DHT22;10137;49.406;19.484;2022-09-03T06:17:10;9.00;99.90
19952;DHT22;10137;49.406;19.484;2022-09-03T06:19:37;9.40;99.90
19952;DHT22;10137;49.406;19.484;2022-09-03T06:22:04;9.80;99.90
19952;DHT22;10137;49.406;19.484;2022-09-03T06:24:31;10.10;99.90
19952;DHT22;10137;49.406;19.484;2022-09-03T06:26:58;10.50;99.90
19952;DHT22;10137;49.406;19.484;2022-09-03T06:29:25;11.00;99.90
19952;DHT22;10137;49.406;19.484;2022-09-03T06:31:52;11.50;99.90
19952;DHT22;10137;49.406;19.484;2022-09-03T06:34:21;11.90;99.90
19952;DHT22;10137;49.406;19.484;2022-09-03T06:36:51;12.10;99.90
19952;DHT22;10137;49.406;19.484;2022-09-03T06:39:18;12.40;99.90
19952;DHT22;10137;49.406;19.484;2022-09-03T06:41:45;12.70;99.90
19952;DHT22;10137;49.406;19.484;2022-09-03T06:44:16;12.70;99.90
19952;DHT22;10137;49.406;19.484;2022-09-03T06:46:43;12.80;99.90
19952;DHT22;10137;49.406;19.484;2022-09-03T06:49:12;13.00;99.90
19952;DHT22;10137;49.406;19.484;2022-09-03T06:51:40;13.30;99.90
19952;DHT22;10137;49.406;19.484;2022-09-03T06:54:09;13.60;99.90
19952;DHT22;10137;49.406;19.484;2022-09-03T06:56:37;13.80;99.90
19952;DHT22;10137;49.406;19.484;2022-09-03T06:59:06;14.00;99.90
19952;DHT22;10137;49.406;19.484;2022-09-03T07:01:33;14.10;99.90
19952;DHT22;10137;49.406;19.484;2022-09-03T07:04:02;14.30;99.90
19952;DHT22;10137;49.406;19.484;2022-09-03T07:06:31;14.50;99.90
19952;DHT22;10137;49.406;19.484;2022-09-03T07:09:00;14.70;99.90
19952;DHT22;10137;49.406;19.484;2022-09-03T07:11:28;14.80;99.90
19952;DHT22;10137;49.406;19.484;2022-09-03T07:13:58;14.90;99.90
19952;DHT22;10137;49.406;19.484;2022-09-03T07:16:27;14.80;99.90
19952;DHT22;10137;49.406;19.484;2022-09-03T07:18:55;14.90;99.90
19952;DHT22;10137;49.406;19.484;2022-09-03T07:21:23;14.80;99.90
19952;DHT22;10137;49.406;19.484;2022-09-03T07:23:52;15.00;99.90
19952;DHT22;10137;49.406;19.484;2022-09-03T07:26:22;15.00;99.90
19952;DHT22;10137;49.406;19.484;2022-09-03T07:28:50;15.20;99.90
19952;DHT22;10137;49.406;19.484;2022-09-03T07:31:21;15.30;99.90
19952;DHT22;10137;49.406;19.484;2022-09-03T07:33:52;15.40;99.90
19952;DHT22;10137;49.406;19.484;2022-09-03T07:36:22;15.50;99.90
19952;DHT22;10137;49.406;19.484;2022-09-03T07:38:53;15.50;99.90
19952;DHT22;10137;49.406;19.484;2022-09-03T07:41:22;15.60;99.90
19952;DHT22;10137;49.406;19.484;2022-09-03T07:43:49;16.00;99.90
19952;DHT22;10137;49.406;19.484;2022-09-03T07:46:18;16.10;99.90
19952;DHT22;10137;49.406;19.484;2022-09-03T07:48:47;16.40;99.90
19952;DHT22;10137;49.406;19.484;2022-09-03T07:51:15;16.50;99.90
19952;DHT22;10137;49.406;19.484;2022-09-03T07:53:43;16.60;99.90
19952;DHT22;10137;49.406;19.484;2022-09-03T07:56:10;16.90;99.90
19952;DHT22;10137;49.406;19.484;2022-09-03T07:58:39;17.20;99.90
19952;DHT22;10137;49.406;19.484;2022-09-03T08:01:08;17.30;99.90
19952;DHT22;10137;49.406;19.484;2022-09-03T08:03:35;17.50;99.90
19952;DHT22;10137;49.406;19.484;2022-09-03T08:06:04;17.80;99.90
19952;DHT22;10137;49.406;19.484;2022-09-03T08:08:32;17.90;99.90
19952;DHT22;10137;49.406;19.484;2022-09-03T08:11:05;18.00;99.90
19952;DHT22;10137;49.406;19.484;2022-09-03T08:13:36;18.30;99.90
19952;DHT22;10137;49.406;19.484;2022-09-03T08:16:05;18.50;99.90
19952;DHT22;10137;49.406;19.484;2022-09-03T08:18:33;18.80;99.90
19952;DHT22;10137;49.406;19.484;2022-09-03T08:21:03;19.20;99.90
19952;DHT22;10137;49.406;19.484;2022-09-03T08:23:32;19.80;99.90
19952;DHT22;10137;49.406;19.484;2022-09-03T08:25:59;20.00;99.90
19952;DHT22;10137;49.406;19.484;2022-09-03T08:28:27;20.10;99.90
19952;DHT22;10137;49.406;19.484;2022-09-03T08:30:56;20.30;99.90
19952;DHT22;10137;49.406;19.484;2022-09-03T08:33:24;20.40;99.90
19952;DHT22;10137;49.406;19.484;2022-09-03T08:36:03;20.50;99.90
19952;DHT22;10137;49.406;19.484;2022-09-03T08:38:31;20.50;99.90
19952;DHT22;10137;49.406;19.484;2022-09-03T08:41:06;20.70;99.90
19952;DHT22;10137;49.406;19.484;2022-09-03T08:43:49;20.90;99.90
19952;DHT22;10137;49.406;19.484;2022-09-03T08:46:21;21.00;99.90
19952;DHT22;10137;49.406;19.484;2022-09-03T08:48:53;20.90;99.90
19952;DHT22;10137;49.406;19.484;2022-09-03T08:51:22;20.90;99.90
19952;DHT22;10137;49.406;19.484;2022-09-03T08:53:53;21.00;99.90
19952;DHT22;10137;49.406;19.484;2022-09-03T08:56:25;21.20;99.90
19952;DHT22;10137;49.406;19.484;2022-09-03T08:58:53;21.60;99.90
19952;DHT22;10137;49.406;19.484;2022-09-03T09:01:29;21.90;99.20
19952;DHT22;10137;49.406;19.484;2022-09-03T09:04:09;22.40;97.60
19952;DHT22;10137;49.406;19.484;2022-09-03T09:06:44;22.40;94.80
19952;DHT22;10137;49.406;19.484;2022-09-03T09:09:23;22.30;95.50
19952;DHT22;10137;49.406;19.484;2022-09-03T09:12:08;22.40;94.60
19952;DHT22;10137;49.406;19.484;2022-09-03T09:14:45;22.60;94.10
19952;DHT22;10137;49.406;19.484;2022-09-03T09:17:29;22.60;95.00
19952;DHT22;10137;49.406;19.484;2022-09-03T09:20:05;22.40;93.80
19952;DHT22;10137;49.406;19.484;2022-09-03T09:22:37;22.30;93.40
19952;DHT22;10137;49.406;19.484;2022-09-03T09:25:11;22.40;92.40
19952;DHT22;10137;49.406;19.484;2022-09-03T09:27:47;22.30;93.10
19952;DHT22;10137;49.406;19.484;2022-09-03T09:30:16;22.30;93.20
19952;DHT22;10137;49.406;19.484;2022-09-03T09:32:44;22.10;92.00
19952;DHT22;10137;49.406;19.484;2022-09-03T09:35:14;22.00;94.80
19952;DHT22;10137;49.406;19.484;2022-09-03T09:37:48;22.30;93.80
19952;DHT22;10137;49.406;19.484;2022-09-03T09:40:32;22.30;92.50
19952;DHT22;10137;49.406;19.484;2022-09-03T09:43:05;22.00;93.40
19952;DHT22;10137;49.406;19.484;2022-09-03T09:45:32;22.50;93.00
19952;DHT22;10137;49.406;19.484;2022-09-03T09:48:01;22.20;91.20
19952;DHT22;10137;49.406;19.484;2022-09-03T09:50:30;22.10;92.80
19952;DHT22;10137;49.406;19.484;2022-09-03T09:53:01;22.10;93.10
19952;DHT22;10137;49.406;19.484;2022-09-03T09:55:33;22.10;93.00
19952;DHT22;10137;49.406;19.484;2022-09-03T09:58:06;22.30;94.30
19952;DHT22;10137;49.406;19.484;2022-09-03T10:00:35;22.40;92.70
19952;DHT22;10137;49.406;19.484;2022-09-03T10:03:08;22.10;91.70
19952;DHT22;10137;49.406;19.484;2022-09-03T10:05:39;22.10;92.70
19952;DHT22;10137;49.406;19.484;2022-09-03T10:08:18;22.00;92.90
19952;DHT22;10137;49.406;19.484;2022-09-03T10:10:48;21.90;92.80
19952;DHT22;10137;49.406;19.484;2022-09-03T10:13:18;22.00;92.90
19952;DHT22;10137;49.406;19.484;2022-09-03T10:15:53;22.10;92.70
19952;DHT22;10137;49.406;19.484;2022-09-03T10:18:28;21.90;92.10
19952;DHT22;10137;49.406;19.484;2022-09-03T10:21:02;21.80;92.80
19952;DHT22;10137;49.406;19.484;2022-09-03T10:23:38;21.90;92.90
19952;DHT22;10137;49.406;19.484;2022-09-03T10:26:09;21.70;91.60
19952;DHT22;10137;49.406;19.484;2022-09-03T10:28:40;21.50;90.90
19952;DHT22;10137;49.406;19.484;2022-09-03T10:31:20;21.30;91.90
19952;DHT22;10137;49.406;19.484;2022-09-03T10:33:57;21.10;92.70
19952;DHT22;10137;49.406;19.484;2022-09-03T10:36:32;21.10;92.60
19952;DHT22;10137;49.406;19.484;2022-09-03T10:39:04;21.10;92.90
19952;DHT22;10137;49.406;19.484;2022-09-03T10:41:43;21.20;92.90
19952;DHT22;10137;49.406;19.484;2022-09-03T10:44:30;21.30;92.40
19952;DHT22;10137;49.406;19.484;2022-09-03T10:47:11;21.20;92.50
19952;DHT22;10137;49.406;19.484;2022-09-03T10:49:51;21.20;93.70
19952;DHT22;10137;49.406;19.484;2022-09-03T10:52:26;21.20;93.40
19952;DHT22;10137;49.406;19.484;2022-09-03T10:55:05;21.10;92.40
19952;DHT22;10137;49.406;19.484;2022-09-03T10:57:44;21.00;94.00
19952;DHT22;10137;49.406;19.484;2022-09-03T11:00:15;21.00;95.30
19952;DHT22;10137;49.406;19.484;2022-09-03T11:05:40;20.80;95.40
19952;DHT22;10137;49.406;19.484;2022-09-03T11:08:16;20.90;96.20
19952;DHT22;10137;49.406;19.484;2022-09-03T11:10:48;20.80;95.10
19952;DHT22;10137;49.406;19.484;2022-09-03T11:13:22;20.70;95.50
19952;DHT22;10137;49.406;19.484;2022-09-03T11:15:52;20.50;95.20
19952;DHT22;10137;49.406;19.484;2022-09-03T11:18:23;20.50;96.30
19952;DHT22;10137;49.406;19.484;2022-09-03T11:20:54;20.40;97.60
19952;DHT22;10137;49.406;19.484;2022-09-03T11:23:27;20.30;96.40
19952;DHT22;10137;49.406;19.484;2022-09-03T11:25:57;20.10;96.00
19952;DHT22;10137;49.406;19.484;2022-09-03T11:28:33;20.10;99.90
19952;DHT22;10137;49.406;19.484;2022-09-03T11:31:17;19.90;99.40
19952;DHT22;10137;49.406;19.484;2022-09-03T11:33:52;19.70;97.90
19952;DHT22;10137;49.406;19.484;2022-09-03T11:36:28;19.60;99.90
19952;DHT22;10137;49.406;19.484;2022-09-03T11:38:57;19.50;99.90
19952;DHT22;10137;49.406;19.484;2022-09-03T11:41:26;19.50;99.90
19952;DHT22;10137;49.406;19.484;2022-09-03T11:43:53;19.40;99.90
19952;DHT22;10137;49.406;19.484;2022-09-03T11:46:29;19.40;99.40
19952;DHT22;10137;49.406;19.484;2022-09-03T11:49:09;19.30;99.90
19952;DHT22;10137;49.406;19.484;2022-09-03T11:51:37;19.20;99.90
19952;DHT22;10137;49.406;19.484;2022-09-03T11:54:24;19.20;99.90
19952;DHT22;10137;49.406;19.484;2022-09-03T11:57:06;19.20;99.90
19952;DHT22;10137;49.406;19.484;2022-09-03T11:59:36;19.20;99.90
19952;DHT22;10137;49.406;19.484;2022-09-03T12:02:08;19.20;99.90
19952;DHT22;10137;49.406;19.484;2022-09-03T12:04:43;19.10;99.90
19952;DHT22;10137;49.406;19.484;2022-09-03T12:07:24;19.20;99.90
19952;DHT22;10137;49.406;19.484;2022-09-03T12:10:11;19.20;99.90
19952;DHT22;10137;49.406;19.484;2022-09-03T12:12:51;19.20;99.90
19952;DHT22;10137;49.406;19.484;2022-09-03T12:15:41;19.20;99.90
19952;DHT22;10137;49.406;19.484;2022-09-03T12:18:16;19.20;99.90
19952;DHT22;10137;49.406;19.484;2022-09-03T12:20:46;19.20;99.90
19952;DHT22;10137;49.406;19.484;2022-09-03T12:23:25;19.30;99.90
19952;DHT22;10137;49.406;19.484;2022-09-03T12:25:54;19.40;99.90
19952;DHT22;10137;49.406;19.484;2022-09-03T12:28:23;19.40;99.90
19952;DHT22;10137;49.406;19.484;2022-09-03T12:30:52;19.40;99.90
19952;DHT22;10137;49.406;19.484;2022-09-03T12:33:21;19.40;99.90
19952;DHT22;10137;49.406;19.484;2022-09-03T12:35:58;19.40;99.90
19952;DHT22;10137;49.406;19.484;2022-09-03T12:38:27;19.40;99.90
19952;DHT22;10137;49.406;19.484;2022-09-03T12:40:55;19.40;99.90
19952;DHT22;10137;49.406;19.484;2022-09-03T12:43:27;19.40;99.90
19952;DHT22;10137;49.406;19.484;2022-09-03T12:45:54;19.30;99.90
19952;DHT22;10137;49.406;19.484;2022-09-03T12:48:22;19.20;99.90
19952;DHT22;10137;49.406;19.484;2022-09-03T12:51:01;19.20;99.90
19952;DHT22;10137;49.406;19.484;2022-09-03T12:53:30;19.10;99.90
19952;DHT22;10137;49.406;19.484;2022-09-03T12:56:00;19.20;99.90
19952;DHT22;10137;49.406;19.484;2022-09-03T12:58:31;19.10;99.90
19952;DHT22;10137;49.406;19.484;2022-09-03T13:01:07;19.00;99.90
19952;DHT22;10137;49.406;19.484;2022-09-03T13:03:43;18.90;99.90
19952;DHT22;10137;49.406;19.484;2022-09-03T13:06:14;18.90;99.90
19952;DHT22;10137;49.406;19.484;2022-09-03T13:08:45;18.80;99.90
19952;DHT22;10137;49.406;19.484;2022-09-03T13:11:18;18.80;99.90
19952;DHT22;10137;49.406;19.484;2022-09-03T13:13:53;18.80;99.90
19952;DHT22;10137;49.406;19.484;2022-09-03T13:16:42;18.80;99.90
19952;DHT22;10137;49.406;19.484;2022-09-03T13:19:17;18.70;99.90
19952;DHT22;10137;49.406;19.484;2022-09-03T13:21:49;18.90;99.90
19952;DHT22;10137;49.406;19.484;2022-09-03T13:24:36;18.90;99.90
19952;DHT22;10137;49.406;19.484;2022-09-03T13:27:16;18.90;99.90
19952;DHT22;10137;49.406;19.484;2022-09-03T13:29:57;18.80;99.90
19952;DHT22;10137;49.406;19.484;2022-09-03T13:32:32;18.70;99.90
19952;DHT22;10137;49.406;19.484;2022-09-03T13:35:07;18.80;99.90
19952;DHT22;10137;49.406;19.484;2022-09-03T13:37:39;18.80;99.90
19952;DHT22;10137;49.406;19.484;2022-09-03T13:40:15;18.80;99.90
19952;DHT22;10137;49.406;19.484;2022-09-03T13:42:50;18.80;99.90
19952;DHT22;10137;49.406;19.484;2022-09-03T13:45:27;18.80;99.90
19952;DHT22;10137;49.406;19.484;2022-09-03T13:47:59;18.70;99.90
19952;DHT22;10137;49.406;19.484;2022-09-03T13:50:47;18.70;99.90
19952;DHT22;10137;49.406;19.484;2022-09-03T13:53:21;18.70;99.90
19952;DHT22;10137;49.406;19.484;2022-09-03T13:55:55;18.70;99.90
19952;DHT22;10137;49.406;19.484;2022-09-03T13:58:34;18.70;99.90
19952;DHT22;10137;49.406;19.484;2022-09-03T14:01:13;18.80;99.90
19952;DHT22;10137;49.406;19.484;2022-09-03T14:03:47;18.90;99.90
19952;DHT22;10137;49.406;19.484;2022-09-03T14:06:23;19.00;99.90
19952;DHT22;10137;49.406;19.484;2022-09-03T14:09:08;18.90;99.90
19952;DHT22;10137;49.406;19.484;2022-09-03T14:11:48;18.90;99.90
19952;DHT22;10137;49.406;19.484;2022-09-03T14:14:27;18.90;99.90
19952;DHT22;10137;49.406;19.484;2022-09-03T14:17:00;18.90;99.90
19952;DHT22;10137;49.406;19.484;2022-09-03T14:19:38;18.90;99.90
19952;DHT22;10137;49.406;19.484;2022-09-03T14:22:12;18.90;99.90
19952;DHT22;10137;49.406;19.484;2022-09-03T14:24:45;18.90;99.90
19952;DHT22;10137;49.406;19.484;2022-09-03T14:27:22;18.80;99.90
19952;DHT22;10137;49.406;19.484;2022-09-03T14:29:54;18.90;99.90
19952;DHT22;10137;49.406;19.484;2022-09-03T14:32:31;18.90;99.90
19952;DHT22;10137;49.406;19.484;2022-09-03T14:35:23;18.90;99.90
19952;DHT22;10137;49.406;19.484;2022-09-03T14:41:01;18.90;99.90
19952;DHT22;10137;49.406;19.484;2022-09-03T14:46:53;19.00;99.90
19952;DHT22;10137;49.406;19.484;2022-09-03T14:52:27;18.90;99.90
19952;DHT22;10137;49.406;19.484;2022-09-03T14:55:11;18.70;99.90
19952;DHT22;10137;49.406;19.484;2022-09-03T14:58:17;18.70;99.90
19952;DHT22;10137;49.406;19.484;2022-09-03T15:00:52;18.70;99.90
19952;DHT22;10137;49.406;19.484;2022-09-03T15:06:36;18.60;99.90
19952;DHT22;10137;49.406;19.484;2022-09-03T15:09:19;18.60;99.90
19952;DHT22;10137;49.406;19.484;2022-09-03T15:11:53;18.50;99.90
19952;DHT22;10137;49.406;19.484;2022-09-03T15:14:26;18.50;99.90
19952;DHT22;10137;49.406;19.484;2022-09-03T15:17:00;18.40;99.90
19952;DHT22;10137;49.406;19.484;2022-09-03T15:19:50;18.30;99.90
19952;DHT22;10137;49.406;19.484;2022-09-03T15:22:35;18.20;99.90
19952;DHT22;10137;49.406;19.484;2022-09-03T15:25:12;18.20;99.90
19952;DHT22;10137;49.406;19.484;2022-09-03T15:28:05;18.10;99.90
19952;DHT22;10137;49.406;19.484;2022-09-03T15:30:43;18.10;99.90
19952;DHT22;10137;49.406;19.484;2022-09-03T15:33:19;18.00;99.90
19952;DHT22;10137;49.406;19.484;2022-09-03T15:36:02;18.00;99.90
19952;DHT22;10137;49.406;19.484;2022-09-03T15:38:41;17.80;99.90
19952;DHT22;10137;49.406;19.484;2022-09-03T15:41:19;17.80;99.90
19952;DHT22;10137;49.406;19.484;2022-09-03T15:43:49;17.70;99.90
19952;DHT22;10137;49.406;19.484;2022-09-03T15:46:33;17.70;99.90
19952;DHT22;10137;49.406;19.484;2022-09-03T15:49:07;17.70;99.90
19952;DHT22;10137;49.406;19.484;2022-09-03T15:51:46;17.70;99.90
19952;DHT22;10137;49.406;19.484;2022-09-03T15:54:29;17.70;99.90
19952;DHT22;10137;49.406;19.484;2022-09-03T15:57:01;17.70;99.90
19952;DHT22;10137;49.406;19.484;2022-09-03T15:59:39;17.70;99.90
19952;DHT22;10137;49.406;19.484;2022-09-03T16:02:09;17.70;99.90
19952;DHT22;10137;49.406;19.484;2022-09-03T16:04:51;17.70;99.90
19952;DHT22;10137;49.406;19.484;2022-09-03T16:07:27;17.60;99.90
19952;DHT22;10137;49.406;19.484;2022-09-03T16:10:06;17.60;99.90
19952;DHT22;10137;49.406;19.484;2022-09-03T16:12:39;17.60;99.90